Terminal Aerodrome Forecast
Issued by NWS Charleston, WV

Current Version | Previous Version | Text Only | Print | Product List | Glossary Off
Versions: 1 2 3 4 5 6 7 8 9 10 11 12 13 14 15 16 17 18 19 20 21 22 23

000
FTUS41 KRLX 271739
TAFEKN
TAF
KEKN 271739Z 2718/2818 VRB03KT P6SM BKN030
     FM280100 VRB04KT 5SM BR BKN035
     FM280400 VRB04KT 3SM BR SCT001 BKN035
     FM280800 VRB03KT 4SM SHRA BR OVC025
     FM281600 VRB03KT 6SM BR BKN025=

USA.gov is the U.S. government's official web portal to all federal, state and local government web resources and services.